createdAt,value
2023-02-09T00:06:11.334Z,23.24
2023-02-09T00:16:14.528Z,23.27
2023-02-09T00:26:17.750Z,23.26
2023-02-09T00:36:20.921Z,23.24
2023-02-09T00:46:24.113Z,23.24
2023-02-09T00:56:27.280Z,23.23
2023-02-09T01:06:30.469Z,23.24
2023-02-09T01:16:33.710Z,23.24
2023-02-09T01:26:36.927Z,23.24
2023-02-09T01:36:40.073Z,23.23
2023-02-09T01:46:43.306Z,23.22
2023-02-09T01:56:46.455Z,23.22
2023-02-09T02:17:41.402Z,23.22
2023-02-09T02:27:44.543Z,23.23
2023-02-09T02:37:47.733Z,23.23
2023-02-09T02:47:50.888Z,23.23
2023-02-09T02:57:54.097Z,23.20
2023-02-09T03:07:57.255Z,23.23
2023-02-09T03:18:00.443Z,23.20
2023-02-09T03:28:03.710Z,23.19
2023-02-09T03:38:07.526Z,23.19
2023-02-09T03:48:10.713Z,23.19
2023-02-09T03:58:13.905Z,23.19
2023-02-09T04:08:17.131Z,23.20
2023-02-09T04:18:20.336Z,23.17
2023-02-09T04:28:23.595Z,23.19
2023-02-09T04:38:26.824Z,23.17
2023-02-09T04:48:29.983Z,23.17
2023-02-09T04:58:33.201Z,23.19
2023-02-09T05:08:36.346Z,23.15
2023-02-09T05:18:39.532Z,23.14
2023-02-09T05:28:42.682Z,23.14
2023-02-09T05:38:45.888Z,23.11
2023-02-09T05:48:49.051Z,23.12
2023-02-09T05:58:52.255Z,23.09
2023-02-09T06:08:55.392Z,23.11
2023-02-09T06:18:58.635Z,23.09
2023-02-09T06:29:01.795Z,23.09
2023-02-09T06:39:04.994Z,23.09
2023-02-09T06:49:08.168Z,23.05
2023-02-09T06:59:11.566Z,23.07
2023-02-09T07:09:14.765Z,23.08
2023-02-09T07:19:17.954Z,23.07
2023-02-09T07:29:21.094Z,23.05
2023-02-09T07:39:24.286Z,23.05
2023-02-09T07:49:27.595Z,23.05
2023-02-09T07:59:30.785Z,23.07
2023-02-09T08:09:33.937Z,23.08
2023-02-09T08:19:37.120Z,23.11
2023-02-09T08:29:40.302Z,23.17
2023-02-09T08:39:43.583Z,23.22
2023-02-09T09:00:38.594Z,23.26
2023-02-09T09:10:41.776Z,23.29
2023-02-09T09:20:45.027Z,23.34
2023-02-09T09:30:48.212Z,23.35
2023-02-09T09:40:51.398Z,23.38
2023-02-09T09:50:54.554Z,23.39
2023-02-09T10:00:57.832Z,23.39
2023-02-09T10:11:01.043Z,23.42
2023-02-09T10:21:04.244Z,23.43
2023-02-09T10:31:07.482Z,23.43
2023-02-09T10:41:10.673Z,23.42
2023-02-09T10:51:13.821Z,23.43
2023-02-09T11:01:17.126Z,23.45
2023-02-09T11:11:20.311Z,23.45
2023-02-09T11:21:23.516Z,23.45
2023-02-09T11:31:26.839Z,23.45
2023-02-09T11:41:30.065Z,23.43
2023-02-09T11:51:33.217Z,23.43
2023-02-09T12:01:36.409Z,23.40
2023-02-09T12:11:39.564Z,23.43
2023-02-09T12:21:42.756Z,23.43
2023-02-09T12:31:46.430Z,23.43
2023-02-09T12:41:49.760Z,23.45
2023-02-09T12:51:52.952Z,23.43
2023-02-09T13:01:56.122Z,23.43
2023-02-09T13:11:59.289Z,23.43
2023-02-09T13:22:02.484Z,23.42
2023-02-09T13:32:05.687Z,23.42
2023-02-09T13:42:09.682Z,23.43
2023-02-09T13:52:12.949Z,23.43
2023-02-09T14:02:16.213Z,23.43
2023-02-09T14:12:19.367Z,23.43
2023-02-09T14:22:22.557Z,23.42
2023-02-09T14:32:32.472Z,23.40
2023-02-09T14:42:29.688Z,23.40
2023-02-09T14:52:32.844Z,23.40
2023-02-09T15:02:36.068Z,23.43
2023-02-09T15:12:39.281Z,23.43
2023-02-09T15:22:42.689Z,23.43
2023-02-09T15:32:45.831Z,23.43
2023-02-09T15:42:49.016Z,23.40
2023-02-09T15:52:52.186Z,23.39
2023-02-09T16:02:55.495Z,23.38
2023-02-09T16:12:58.704Z,23.39
2023-02-09T16:23:11.739Z,23.35
2023-02-09T16:33:05.833Z,23.39
2023-02-09T16:43:09.032Z,23.39
2023-02-09T16:53:12.177Z,23.40
2023-02-09T17:03:15.409Z,23.42
2023-02-09T17:13:18.580Z,23.43
2023-02-09T17:23:23.287Z,23.43
2023-02-09T17:33:26.731Z,23.43
2023-02-09T17:43:30.014Z,23.43
2023-02-09T17:53:33.161Z,23.42
2023-02-09T18:03:36.352Z,23.42
2023-02-09T18:13:39.491Z,23.40
2023-02-09T18:23:42.795Z,23.40
2023-02-09T18:33:45.941Z,23.40
2023-02-09T18:43:49.815Z,23.40
2023-02-09T18:53:53.570Z,23.40
2023-02-09T19:03:56.792Z,23.39
2023-02-09T19:14:00.006Z,23.38
2023-02-09T19:24:03.206Z,23.38
2023-02-09T19:34:06.369Z,23.35
2023-02-09T19:44:09.545Z,23.38
2023-02-09T19:54:12.687Z,23.35
2023-02-09T20:04:15.904Z,23.34
2023-02-09T20:14:19.059Z,23.34
2023-02-09T20:24:22.287Z,23.32
2023-02-09T20:34:25.446Z,23.31
2023-02-09T20:44:28.654Z,23.31
2023-02-09T20:54:31.807Z,23.29
2023-02-09T21:04:35.003Z,23.29
2023-02-09T21:14:42.004Z,23.26
2023-02-09T21:24:40.974Z,23.27
2023-02-09T21:34:44.158Z,23.24
2023-02-09T21:44:47.348Z,23.24
2023-02-09T21:54:50.667Z,23.26
2023-02-09T22:04:53.863Z,23.26
2023-02-09T22:14:57.032Z,23.24
2023-02-09T22:25:00.249Z,23.23
2023-02-09T22:35:03.399Z,23.23
2023-02-09T22:45:06.604Z,23.20
2023-02-09T22:55:09.758Z,23.20
2023-02-09T23:05:12.956Z,23.22
2023-02-09T23:15:16.108Z,23.17
2023-02-09T23:25:19.314Z,23.17
2023-02-09T23:35:23.960Z,23.17
2023-02-09T23:45:27.417Z,23.17
2023-02-09T23:55:30.677Z,23.15
